Time;durP1;ratioP1;P1;durP2;ratioP2;P2;SDS_P1;SDS_P2;PMS_P1;PMS_P2;Temp;Humidity;BMP_temperature;BMP_pressure;BME280_temperature;BME280_humidity;BME280_pressure;Samples;Min_cycle;Max_cycle;Signal;HPM_P1;HPM_P2
2023/06/14 00:03:49;;;;;;;8.00;7.20;;;24.60;65.10;;;;;;4679254;56;21092;-38
2023/06/14 00:08:50;;;;;;;8.00;7.20;;;24.60;65.20;;;;;;4615427;60;21519;-36
2023/06/14 00:13:51;;;;;;;8.00;7.22;;;24.60;65.20;;;;;;4638699;56;21983;-36
2023/06/14 00:18:52;;;;;;;9.30;7.30;;;24.60;65.20;;;;;;4708064;56;21001;-37
2023/06/14 00:23:53;;;;;;;8.73;6.53;;;24.60;65.90;;;;;;4671002;56;21020;-37
2023/06/14 00:28:54;;;;;;;7.70;6.90;;;24.50;65.20;;;;;;4640764;56;21069;-39
2023/06/14 00:33:55;;;;;;;7.43;6.72;;;24.60;65.20;;;;;;4631975;56;21467;-37
2023/06/14 00:38:56;;;;;;;7.95;7.15;;;24.60;65.20;;;;;;4615276;60;21017;-37
2023/06/14 00:43:57;;;;;;;7.68;6.68;;;24.60;65.20;;;;;;4614634;60;21283;-36
2023/06/14 00:49:00;;;;;;;7.40;6.70;;;24.60;65.30;;;;;;4615213;60;21033;-36
2023/06/14 00:54:01;;;;;;;7.57;6.87;;;24.60;65.30;;;;;;4615261;60;21567;-38
2023/06/14 00:59:03;;;;;;;6.43;5.82;;;24.60;65.30;;;;;;4615225;60;21077;-37
2023/06/14 01:04:05;;;;;;;6.82;6.22;;;24.60;65.30;;;;;;4615730;58;21092;-37
2023/06/14 01:12:50;;;;;;;7.10;6.50;;;24.60;65.20;;;;;;4646572;56;21538;-36
2023/06/14 01:17:53;;;;;;;7.85;7.03;;;24.60;65.30;;;;;;4635414;56;21025;-38
2023/06/14 01:22:54;;;;;;;7.20;6.50;;;24.50;65.30;;;;;;4657709;56;21032;-39
2023/06/14 01:28:03;;;;;;;7.03;6.35;;;24.60;65.30;;;;;;4717521;56;21081;-36
2023/06/14 01:33:05;;;;;;;7.35;6.32;;;24.60;65.30;;;;;;4705436;56;21081;-35
2023/06/14 01:38:08;;;;;;;6.85;6.15;;;24.60;65.30;;;;;;4743297;56;22296;-37
2023/06/14 01:43:11;;;;;;;7.47;6.78;;;24.60;65.30;;;;;;4711301;56;21582;-35
2023/06/14 01:48:12;;;;;;;7.37;6.40;;;24.50;65.20;;;;;;4670683;56;21024;-36
2023/06/14 01:53:13;;;;;;;6.55;5.95;;;24.50;65.30;;;;;;4615547;60;21498;-37
2023/06/14 01:58:18;;;;;;;6.95;6.25;;;24.60;65.40;;;;;;4687146;56;21044;-35
2023/06/14 02:03:19;;;;;;;6.87;6.18;;;24.50;65.30;;;;;;4641056;56;21611;-35
2023/06/14 02:08:20;;;;;;;7.00;6.30;;;24.50;65.20;;;;;;4778129;56;21037;-36
2023/06/14 02:13:21;;;;;;;6.75;6.10;;;24.50;65.30;;;;;;4688507;56;21021;-36
2023/06/14 02:18:22;;;;;;;9.90;6.03;;;24.50;65.30;;;;;;4669135;56;21132;-36
2023/06/14 02:23:22;;;;;;;6.57;5.97;;;24.50;65.30;;;;;;4631693;56;21515;-36
2023/06/14 02:28:23;;;;;;;6.57;5.80;;;24.50;65.20;;;;;;4615098;60;21208;-35
2023/06/14 02:33:25;;;;;;;7.87;6.00;;;24.50;65.30;;;;;;4792622;56;21559;-36
2023/06/14 02:38:26;;;;;;;6.80;6.12;;;24.50;65.30;;;;;;4660414;56;21521;-36
2023/06/14 02:43:30;;;;;;;7.22;6.45;;;24.50;65.30;;;;;;4617780;56;21536;-37
2023/06/14 02:48:30;;;;;;;6.90;6.25;;;24.50;65.30;;;;;;4615438;57;21599;-35
2023/06/14 02:53:31;;;;;;;6.30;5.70;;;24.50;65.20;;;;;;4626070;56;21084;-36
2023/06/14 02:58:33;;;;;;;6.30;5.60;;;24.50;65.30;;;;;;4615537;60;21013;-37
2023/06/14 03:03:34;;;;;;;6.55;5.95;;;24.50;65.30;;;;;;4631789;56;21563;-35
2023/06/14 03:08:38;;;;;;;7.15;6.45;;;24.50;65.20;;;;;;4736070;56;21362;-35
2023/06/14 03:13:40;;;;;;;6.70;6.00;;;24.50;65.30;;;;;;4615280;57;21646;-35
2023/06/14 03:18:41;;;;;;;6.10;5.60;;;24.50;65.30;;;;;;4702586;56;21575;-36
2023/06/14 03:23:43;;;;;;;7.28;6.57;;;24.50;65.30;;;;;;4650746;56;21025;-36
2023/06/14 03:28:49;;;;;;;7.12;6.43;;;24.50;65.20;;;;;;4664071;56;21530;-36
2023/06/14 03:33:50;;;;;;;6.68;6.07;;;24.50;65.00;;;;;;4669665;56;21523;-35
2023/06/14 03:38:51;;;;;;;7.00;6.30;;;24.50;65.00;;;;;;4730723;56;21041;-41
2023/06/14 03:43:52;;;;;;;6.40;5.80;;;24.50;65.50;;;;;;4764541;56;21543;-38
2023/06/14 03:48:53;;;;;;;6.45;5.85;;;24.50;64.80;;;;;;4614616;60;21476;-36
2023/06/14 03:53:54;;;;;;;6.25;5.65;;;24.50;64.80;;;;;;4625229;56;21096;-33
2023/06/14 03:58:56;;;;;;;6.50;5.90;;;24.50;64.70;;;;;;4838905;56;21539;-34
2023/06/14 04:03:57;;;;;;;6.95;6.25;;;24.40;64.50;;;;;;4627242;56;21124;-37
2023/06/14 04:09:03;;;;;;;6.10;5.57;;;24.50;64.70;;;;;;4662484;56;21153;-36
2023/06/14 04:14:05;;;;;;;6.93;5.80;;;24.40;64.50;;;;;;4617430;56;21078;-37
2023/06/14 04:19:06;;;;;;;6.40;5.78;;;24.50;64.60;;;;;;4662317;56;21065;-34
2023/06/14 04:24:13;;;;;;;5.65;5.12;;;24.50;64.50;;;;;;4654337;56;21021;-37
2023/06/14 04:29:16;;;;;;;6.47;5.87;;;24.40;64.50;;;;;;4699228;56;21519;-37
2023/06/14 04:34:17;;;;;;;8.30;5.90;;;24.40;64.40;;;;;;4744881;56;21532;-36
2023/06/14 04:39:18;;;;;;;6.00;5.50;;;24.40;64.40;;;;;;4625177;56;21487;-36
2023/06/14 04:44:20;;;;;;;6.57;5.50;;;24.40;64.30;;;;;;4632382;56;21160;-36
2023/06/14 04:49:23;;;;;;;7.00;5.18;;;24.40;64.30;;;;;;4650694;56;21499;-38
2023/06/14 04:54:27;;;;;;;6.25;5.65;;;24.50;64.30;;;;;;4683995;56;21571;-36
2023/06/14 04:59:27;;;;;;;6.12;5.50;;;24.40;64.30;;;;;;4667194;56;21078;-38
2023/06/14 05:04:28;;;;;;;6.12;5.53;;;24.40;64.30;;;;;;4615831;56;21033;-36
2023/06/14 05:09:29;;;;;;;6.18;5.57;;;24.40;64.30;;;;;;4645115;56;21547;-37
2023/06/14 05:14:30;;;;;;;6.72;5.75;;;24.40;64.20;;;;;;4641594;56;21072;-37
2023/06/14 05:19:31;;;;;;;6.43;5.85;;;24.40;64.20;;;;;;4681068;56;21021;-36
2023/06/14 05:24:32;;;;;;;6.60;5.95;;;24.40;64.30;;;;;;4640955;56;21074;-39
2023/06/14 05:29:33;;;;;;;6.82;6.03;;;24.40;64.10;;;;;;4763203;56;21021;-33
2023/06/14 05:34:34;;;;;;;7.28;6.32;;;24.40;64.10;;;;;;4689729;56;21134;-35
2023/06/14 05:39:34;;;;;;;6.43;5.85;;;24.40;64.10;;;;;;4642261;56;21077;-39
2023/06/14 05:44:35;;;;;;;6.35;5.75;;;24.40;64.10;;;;;;4649708;56;21121;-36
2023/06/14 05:49:36;;;;;;;7.32;6.55;;;24.40;64.10;;;;;;4660705;56;21085;-35
2023/06/14 05:54:37;;;;;;;7.20;5.90;;;24.40;64.00;;;;;;4801905;56;21035;-37
2023/06/14 05:59:38;;;;;;;7.35;6.60;;;24.40;64.00;;;;;;4731410;56;21560;-38
2023/06/14 06:04:38;;;;;;;7.05;6.43;;;24.40;64.00;;;;;;4654036;56;21021;-36
2023/06/14 06:09:39;;;;;;;7.72;7.03;;;24.40;64.00;;;;;;4678421;56;21042;-33
2023/06/14 06:14:40;;;;;;;7.03;6.10;;;24.40;64.10;;;;;;4628000;56;21029;-34
2023/06/14 06:19:41;;;;;;;7.00;6.30;;;24.40;63.90;;;;;;4647071;56;21583;-37
2023/06/14 06:24:42;;;;;;;7.82;6.95;;;24.40;64.00;;;;;;4741961;56;21148;-37
2023/06/14 06:29:46;;;;;;;8.25;6.60;;;24.40;64.00;;;;;;4623914;56;21108;-39
2023/06/14 06:34:47;;;;;;;7.68;6.53;;;24.40;64.00;;;;;;4622801;56;21588;-35
2023/06/14 06:39:47;;;;;;;8.30;7.10;;;24.40;64.00;;;;;;4613326;60;21025;-37
2023/06/14 06:44:48;;;;;;;8.40;6.95;;;24.40;64.00;;;;;;4751795;56;21873;-37
2023/06/14 06:49:49;;;;;;;7.72;6.95;;;24.40;64.00;;;;;;4616611;56;21025;-37
2023/06/14 06:54:54;;;;;;;7.60;6.90;;;24.40;64.00;;;;;;4612958;56;21528;-29
2023/06/14 06:59:55;;;;;;;9.70;6.90;;;24.50;63.70;;;;;;4614026;60;21496;-30
2023/06/14 07:04:56;;;;;;;8.57;7.30;;;24.60;63.60;;;;;;4614311;60;21089;-35
2023/06/14 07:09:57;;;;;;;8.25;6.47;;;24.60;63.90;;;;;;4612601;60;21029;-36
2023/06/14 07:14:58;;;;;;;7.87;6.95;;;24.60;63.80;;;;;;4630678;56;21037;-36
2023/06/14 07:19:59;;;;;;;9.25;7.70;;;24.70;63.90;;;;;;4659263;56;21579;-30
2023/06/14 07:25:01;;;;;;;11.10;8.32;;;24.70;63.90;;;;;;4651018;56;21317;-36
2023/06/14 07:30:05;;;;;;;9.50;8.02;;;24.70;64.00;;;;;;4635024;56;21559;-34
2023/06/14 07:35:06;;;;;;;9.35;7.75;;;24.80;64.00;;;;;;4654442;56;22004;-34
2023/06/14 07:40:10;;;;;;;9.60;8.13;;;24.80;64.20;;;;;;4620251;56;21045;-37
2023/06/14 07:45:15;;;;;;;9.35;8.38;;;24.80;64.30;;;;;;4625975;56;21547;-36
2023/06/14 07:50:16;;;;;;;8.85;7.95;;;24.80;64.20;;;;;;4658005;56;21084;-35
2023/06/14 07:55:17;;;;;;;10.38;7.93;;;24.80;65.00;;;;;;4613140;60;21137;-34
2023/06/14 08:00:20;;;;;;;9.15;7.78;;;24.90;64.70;;;;;;4613609;60;21503;-34
2023/06/14 08:05:20;;;;;;;10.45;9.05;;;24.90;64.60;;;;;;4613192;60;21491;-36
2023/06/14 08:10:22;;;;;;;9.38;8.40;;;24.90;64.60;;;;;;4631977;56;21103;-36
2023/06/14 08:15:23;;;;;;;12.88;9.27;;;24.90;64.60;;;;;;4630096;56;21013;-28
2023/06/14 08:20:24;;;;;;;10.20;8.90;;;24.90;64.50;;;;;;4613359;60;22015;-34
2023/06/14 08:25:26;;;;;;;10.30;8.95;;;25.00;64.70;;;;;;4657118;56;21547;-34
2023/06/14 08:30:27;;;;;;;11.57;9.25;;;25.00;64.80;;;;;;4617078;56;21108;-35
2023/06/14 08:35:28;;;;;;;10.25;9.13;;;24.90;64.90;;;;;;4615083;56;22173;-34
2023/06/14 08:40:30;;;;;;;10.05;9.05;;;24.90;65.00;;;;;;4630013;56;21069;-34
2023/06/14 08:45:31;;;;;;;10.75;9.65;;;24.90;65.30;;;;;;4614393;56;21096;-33
2023/06/14 08:50:34;;;;;;;13.07;10.02;;;25.00;65.30;;;;;;4618589;56;21547;-36
2023/06/14 08:55:38;;;;;;;13.50;10.48;;;24.90;65.40;;;;;;4635143;56;21499;-33
2023/06/14 09:00:41;;;;;;;14.98;10.80;;;25.00;65.50;;;;;;4636634;56;21119;-34
2023/06/14 09:05:43;;;;;;;13.75;11.55;;;25.00;65.60;;;;;;4626070;55;21579;-38
2023/06/14 09:10:45;;;;;;;16.45;10.73;;;25.00;65.50;;;;;;4613313;59;21777;-35
2023/06/14 09:15:46;;;;;;;14.43;11.60;;;24.90;65.60;;;;;;4620021;56;21037;-37
2023/06/14 09:20:48;;;;;;;17.30;11.80;;;24.90;65.70;;;;;;4613721;59;22074;-36
2023/06/14 09:25:48;;;;;;;12.95;11.52;;;24.80;65.80;;;;;;4626727;55;22329;-38
2023/06/14 09:30:49;;;;;;;14.80;11.77;;;24.80;65.70;;;;;;4629951;55;21029;-36
2023/06/14 09:35:54;;;;;;;13.52;12.10;;;24.80;65.80;;;;;;4659686;55;21515;-34
2023/06/14 09:40:58;;;;;;;13.82;12.27;;;24.80;65.80;;;;;;4638311;56;21567;-38
2023/06/14 09:46:01;;;;;;;14.93;12.30;;;24.80;66.40;;;;;;4632653;55;21599;-36
2023/06/14 09:51:05;;;;;;;14.87;12.73;;;24.80;65.80;;;;;;4614571;56;21105;-39
2023/06/14 09:56:06;;;;;;;14.13;12.25;;;24.80;65.80;;;;;;4620621;56;21518;-35
2023/06/14 10:01:09;;;;;;;14.25;12.75;;;24.80;65.80;;;;;;4612553;60;21115;-40
2023/06/14 10:06:11;;;;;;;15.52;12.90;;;24.80;65.70;;;;;;4623103;55;21780;-37
2023/06/14 10:11:13;;;;;;;14.32;12.30;;;24.80;65.70;;;;;;4615771;56;21053;-38
2023/06/14 10:16:24;;;;;;;15.98;12.75;;;24.80;65.60;;;;;;4614643;57;21037;-36
2023/06/14 10:22:02;;;;;;;14.82;13.05;;;24.80;65.60;;;;;;4631836;55;21471;-37
2023/06/14 10:27:10;;;;;;;17.12;13.45;;;24.80;65.60;;;;;;4638101;56;21025;-41
2023/06/14 10:32:11;;;;;;;16.58;13.60;;;24.80;65.60;;;;;;4613300;58;21648;-35
2023/06/14 10:37:14;;;;;;;16.87;13.62;;;24.80;65.60;;;;;;4642736;55;21096;-38
2023/06/14 10:42:15;;;;;;;15.95;14.07;;;24.80;65.60;;;;;;4613902;60;21152;-38
2023/06/14 10:47:28;;;;;;;16.73;14.07;;;24.80;65.60;;;;;;4639141;56;21105;-36
2023/06/14 10:52:35;;;;;;;15.20;13.60;;;24.80;65.50;;;;;;4613079;60;21493;-36
2023/06/14 10:57:38;;;;;;;15.93;13.43;;;24.80;65.50;;;;;;4635308;56;21514;-35
2023/06/14 11:03:28;;;;;;;17.55;14.10;;;24.80;65.50;;;;;;4634879;56;21507;-38
2023/06/14 11:12:02;;;;;;;17.42;13.38;;;24.80;65.40;;;;;;4721429;56;21033;-36
2023/06/14 11:17:04;;;;;;;18.27;15.15;;;24.80;65.40;;;;;;4619636;56;21114;-30
2023/06/14 11:22:05;;;;;;;17.60;13.93;;;24.90;65.30;;;;;;4613839;58;21021;-43
2023/06/14 11:27:06;;;;;;;16.85;14.07;;;24.90;65.30;;;;;;4624283;56;21491;-33
2023/06/14 11:32:12;;;;;;;16.33;13.62;;;25.00;65.70;;;;;;4663235;55;21101;-36
2023/06/14 11:37:13;;;;;;;16.65;13.85;;;24.90;65.40;;;;;;4676381;55;21543;-36
2023/06/14 11:42:15;;;;;;;17.15;14.52;;;24.90;65.70;;;;;;4613783;60;21132;-37
2023/06/14 11:47:17;;;;;;;17.83;13.73;;;24.90;65.80;;;;;;4632536;56;21033;-38
2023/06/14 11:52:18;;;;;;;14.13;12.68;;;24.90;65.80;;;;;;4613480;55;21062;-38
2023/06/14 11:57:19;;;;;;;16.33;12.95;;;24.80;65.80;;;;;;4620596;56;21025;-37
2023/06/14 12:02:22;;;;;;;15.15;13.18;;;24.90;65.90;;;;;;4656709;55;21089;-34
2023/06/14 12:07:23;;;;;;;17.55;13.55;;;24.80;65.80;;;;;;4671313;56;21139;-35
2023/06/14 12:12:26;;;;;;;16.50;13.80;;;24.80;65.80;;;;;;4613697;55;22259;-34
2023/06/14 12:17:33;;;;;;;15.45;13.75;;;24.90;65.90;;;;;;4613916;60;21065;-35
2023/06/14 12:22:34;;;;;;;17.17;14.30;;;24.80;65.80;;;;;;4644781;56;21037;-37
2023/06/14 12:27:34;;;;;;;14.40;12.35;;;24.90;65.90;;;;;;4651697;55;21041;-36
2023/06/14 12:32:38;;;;;;;14.50;12.82;;;24.80;65.80;;;;;;4678993;55;21550;-35
2023/06/14 12:37:39;;;;;;;16.37;13.68;;;24.80;65.80;;;;;;4637071;55;21069;-37
2023/06/14 12:42:41;;;;;;;15.35;13.35;;;24.80;65.90;;;;;;4647567;56;21204;-35
2023/06/14 12:47:42;;;;;;;16.62;13.70;;;24.80;65.80;;;;;;4614105;60;21029;-40
2023/06/14 12:52:43;;;;;;;17.23;12.98;;;24.90;65.90;;;;;;4638434;55;21182;-39
2023/06/14 12:57:44;;;;;;;16.25;12.23;;;24.90;65.80;;;;;;4617762;55;21065;-33
2023/06/14 13:02:44;;;;;;;15.20;12.30;;;24.90;65.40;;;;;;4685243;55;21551;-34
2023/06/14 13:07:45;;;;;;;19.35;12.63;;;25.00;65.50;;;;;;4615736;55;21037;-40
2023/06/14 13:12:49;;;;;;;14.80;12.57;;;25.20;65.80;;;;;;4621800;56;21021;-39
2023/06/14 13:17:50;;;;;;;17.55;12.48;;;25.10;65.80;;;;;;4615607;55;21056;-37
2023/06/14 13:22:51;;;;;;;14.68;12.25;;;24.90;65.60;;;;;;4711202;55;21573;-33
2023/06/14 13:27:52;;;;;;;16.65;12.85;;;24.90;66.20;;;;;;4659610;55;21017;-37
2023/06/14 13:32:53;;;;;;;16.17;12.15;;;24.80;66.20;;;;;;4686557;55;21547;-38
2023/06/14 13:37:56;;;;;;;16.27;12.95;;;24.80;66.30;;;;;;4615008;60;21049;-36
2023/06/14 13:42:57;;;;;;;15.25;12.80;;;24.80;66.40;;;;;;4685884;56;21093;-39
2023/06/14 13:47:58;;;;;;;16.52;12.82;;;24.80;66.50;;;;;;4615531;55;21076;-37
2023/06/14 13:52:59;;;;;;;15.68;12.10;;;24.80;66.40;;;;;;4626459;55;21541;-37
2023/06/14 13:58:00;;;;;;;14.38;12.23;;;24.80;66.50;;;;;;4615476;59;21547;-39
2023/06/14 14:03:01;;;;;;;15.32;12.68;;;24.80;66.50;;;;;;4668463;55;21049;-38
2023/06/14 14:08:01;;;;;;;15.32;11.80;;;24.70;66.50;;;;;;4615356;59;21013;-37
2023/06/14 14:13:02;;;;;;;15.52;12.37;;;24.80;66.70;;;;;;4677612;55;21044;-36
2023/06/14 14:18:06;;;;;;;13.25;11.85;;;24.70;66.60;;;;;;4664185;55;21025;-35
2023/06/14 14:23:07;;;;;;;15.00;12.68;;;24.70;66.50;;;;;;4693647;56;21996;-38
2023/06/14 14:28:08;;;;;;;15.20;12.55;;;24.70;66.50;;;;;;4632358;55;21469;-39
2023/06/14 14:33:11;;;;;;;15.73;12.15;;;24.80;66.60;;;;;;4614541;59;21233;-40
2023/06/14 14:38:13;;;;;;;12.98;11.35;;;24.80;66.60;;;;;;4679446;55;21615;-38
2023/06/14 14:43:14;;;;;;;14.35;11.70;;;24.70;66.50;;;;;;4675538;56;21534;-38
2023/06/14 14:48:15;;;;;;;15.48;12.25;;;24.70;66.60;;;;;;4615480;59;21025;-39
2023/06/14 14:53:16;;;;;;;13.90;11.65;;;24.70;66.60;;;;;;4614613;59;21053;-40
2023/06/14 14:58:17;;;;;;;14.13;12.50;;;24.70;66.50;;;;;;4662488;55;21080;-37
2023/06/14 15:03:18;;;;;;;14.27;11.38;;;24.70;66.50;;;;;;4626212;55;21519;-40
2023/06/14 15:08:20;;;;;;;13.75;12.30;;;24.70;66.60;;;;;;4627960;55;21068;-40
2023/06/14 15:13:22;;;;;;;13.50;11.80;;;24.70;66.50;;;;;;4615038;59;21105;-38
2023/06/14 15:18:23;;;;;;;13.32;11.93;;;24.70;66.50;;;;;;4615307;59;21598;-36
2023/06/14 15:23:24;;;;;;;14.20;11.23;;;24.70;66.50;;;;;;4615427;60;21159;-36
2023/06/14 15:28:28;;;;;;;13.20;11.90;;;24.70;66.50;;;;;;4614777;59;21025;-36
2023/06/14 15:33:29;;;;;;;14.45;12.37;;;24.70;66.60;;;;;;4639087;55;21483;-38
2023/06/14 15:38:30;;;;;;;13.95;12.07;;;24.70;66.50;;;;;;4614982;59;21081;-40
2023/06/14 15:43:31;;;;;;;13.48;10.77;;;24.70;66.50;;;;;;4677515;55;21053;-39
2023/06/14 15:48:32;;;;;;;13.30;11.90;;;24.70;66.50;;;;;;4615554;55;21053;-39
2023/06/14 15:53:34;;;;;;;15.77;12.18;;;24.70;66.50;;;;;;4656787;55;21124;-39
2023/06/14 15:58:35;;;;;;;13.93;12.02;;;24.70;66.50;;;;;;4663923;55;21479;-43
2023/06/14 16:03:36;;;;;;;12.93;11.10;;;24.70;66.50;;;;;;4615051;59;21053;-39
2023/06/14 16:08:36;;;;;;;13.77;11.20;;;24.70;66.50;;;;;;4615613;59;21471;-37
2023/06/14 16:13:40;;;;;;;14.43;12.00;;;24.70;66.40;;;;;;4718597;55;21057;-36
2023/06/14 16:18:41;;;;;;;13.18;11.77;;;24.70;66.40;;;;;;4649515;56;21085;-39
2023/06/14 16:23:42;;;;;;;12.75;10.80;;;24.70;66.50;;;;;;4615636;59;21559;-40
2023/06/14 16:28:43;;;;;;;12.70;11.38;;;24.70;66.40;;;;;;4684360;56;21009;-38
2023/06/14 16:33:45;;;;;;;12.77;11.32;;;24.70;66.40;;;;;;4639269;55;21621;-37
2023/06/14 16:38:48;;;;;;;12.37;11.07;;;24.70;66.40;;;;;;4777634;56;21483;-38
2023/06/14 16:43:49;;;;;;;13.20;11.80;;;24.70;66.40;;;;;;4791426;56;21056;-37
2023/06/14 16:48:51;;;;;;;12.68;11.38;;;24.70;66.30;;;;;;4638724;55;21096;-36
2023/06/14 16:53:52;;;;;;;13.18;11.77;;;24.60;66.30;;;;;;4615094;60;21532;-35
2023/06/14 16:58:57;;;;;;;12.85;11.35;;;24.70;66.30;;;;;;4618700;56;21025;-37
2023/06/14 17:03:58;;;;;;;12.37;11.07;;;24.70;66.30;;;;;;4629894;56;21045;-38
2023/06/14 17:08:59;;;;;;;14.48;12.13;;;24.70;66.30;;;;;;4614935;59;21056;-36
2023/06/14 17:14:00;;;;;;;13.65;11.63;;;24.70;66.30;;;;;;4636390;55;21041;-37
2023/06/14 17:19:03;;;;;;;12.73;11.32;;;24.70;66.20;;;;;;4625399;55;21541;-38
2023/06/14 17:24:05;;;;;;;13.15;11.75;;;24.70;66.20;;;;;;4615103;60;21338;-35
2023/06/14 17:29:06;;;;;;;12.80;11.38;;;24.70;66.20;;;;;;4634686;56;21073;-37
2023/06/14 17:34:07;;;;;;;12.48;11.23;;;24.70;66.20;;;;;;4656099;55;21088;-38
2023/06/14 17:39:10;;;;;;;12.90;11.60;;;24.70;66.20;;;;;;4615093;59;21037;-39
2023/06/14 17:44:12;;;;;;;14.35;11.38;;;24.70;66.30;;;;;;4613980;60;21599;-39
2023/06/14 17:49:13;;;;;;;14.57;11.77;;;24.70;66.20;;;;;;4614811;59;21552;-35
2023/06/14 17:54:14;;;;;;;12.37;11.15;;;24.70;66.30;;;;;;4614705;59;21037;-37
2023/06/14 17:59:16;;;;;;;12.00;10.23;;;24.70;66.30;;;;;;4652647;55;21089;-38
2023/06/14 18:04:17;;;;;;;12.23;10.27;;;24.70;66.30;;;;;;4615145;60;21025;-41
2023/06/14 18:09:17;;;;;;;12.90;10.93;;;24.70;66.30;;;;;;4615370;59;21033;-37
2023/06/14 18:14:18;;;;;;;13.00;11.63;;;24.60;66.30;;;;;;4672180;55;21469;-38
2023/06/14 18:19:19;;;;;;;13.05;11.63;;;24.70;66.30;;;;;;4615871;59;21025;-41
2023/06/14 18:24:20;;;;;;;13.27;11.85;;;24.70;66.20;;;;;;4644511;55;21021;-39
2023/06/14 18:29:21;;;;;;;14.75;11.75;;;24.70;66.30;;;;;;4710548;56;21033;-40
2023/06/14 18:34:23;;;;;;;12.55;11.25;;;24.70;66.30;;;;;;4633673;55;21487;-38
2023/06/14 18:39:24;;;;;;;12.73;11.18;;;24.70;66.90;;;;;;4670983;56;21503;-37
2023/06/14 18:44:25;;;;;;;14.50;12.30;;;24.70;66.30;;;;;;4667220;55;21049;-38
2023/06/14 18:49:26;;;;;;;13.30;11.65;;;24.70;66.30;;;;;;4780433;55;21487;-37
2023/06/14 18:54:26;;;;;;;14.73;11.63;;;24.70;66.30;;;;;;4648190;55;21076;-38
2023/06/14 18:59:27;;;;;;;13.75;12.07;;;24.70;66.40;;;;;;4801041;55;21504;-39
2023/06/14 19:04:28;;;;;;;12.45;11.15;;;24.70;66.30;;;;;;4615490;60;21547;-37
2023/06/14 19:09:32;;;;;;;13.32;11.93;;;24.70;66.40;;;;;;4667680;55;21089;-37
2023/06/14 19:14:33;;;;;;;13.02;11.60;;;24.70;66.40;;;;;;4622414;56;21044;-39
2023/06/14 19:19:34;;;;;;;12.95;11.50;;;24.70;66.40;;;;;;4686578;55;21054;-38
2023/06/14 19:24:35;;;;;;;13.30;11.12;;;24.70;66.40;;;;;;4675008;56;21024;-40
2023/06/14 19:29:35;;;;;;;12.40;11.00;;;24.70;66.40;;;;;;4615715;59;21578;-39
2023/06/14 19:34:42;;;;;;;13.05;11.27;;;24.60;66.30;;;;;;4639498;55;21033;-39
2023/06/14 19:39:46;;;;;;;13.73;11.38;;;24.60;66.40;;;;;;4624328;55;21499;-37
2023/06/14 19:44:46;;;;;;;12.82;11.43;;;24.70;66.40;;;;;;4637501;56;21103;-42
2023/06/14 19:49:47;;;;;;;13.68;11.23;;;24.70;66.40;;;;;;4615235;55;21089;-38
2023/06/14 19:54:48;;;;;;;12.73;11.40;;;24.70;66.50;;;;;;4690802;55;21013;-39
2023/06/14 19:59:49;;;;;;;13.18;11.32;;;24.70;66.50;;;;;;4734998;56;21121;-38
2023/06/14 20:04:50;;;;;;;13.07;11.63;;;24.70;66.50;;;;;;4667484;56;21069;-41
2023/06/14 20:09:51;;;;;;;11.43;10.32;;;24.60;66.40;;;;;;4682701;55;21092;-38
2023/06/14 20:14:52;;;;;;;11.68;10.40;;;24.70;66.50;;;;;;4776628;56;21140;-38
2023/06/14 20:19:52;;;;;;;12.55;11.30;;;24.70;66.50;;;;;;4743313;55;21089;-38
2023/06/14 20:24:53;;;;;;;12.85;10.88;;;24.70;66.50;;;;;;4615707;59;21554;-38
2023/06/14 20:29:54;;;;;;;13.93;11.27;;;24.70;66.50;;;;;;4614981;56;21116;-38
2023/06/14 20:34:56;;;;;;;12.13;10.82;;;24.60;66.50;;;;;;4628867;55;21140;-40
2023/06/14 20:40:02;;;;;;;13.85;12.10;;;24.60;66.40;;;;;;4615293;60;21101;-38
2023/06/14 20:45:04;;;;;;;12.47;10.67;;;24.60;66.50;;;;;;4657516;55;21504;-40
2023/06/14 20:50:11;;;;;;;12.68;11.38;;;24.60;66.50;;;;;;4626133;56;21144;-39
2023/06/14 20:55:11;;;;;;;12.15;10.88;;;24.60;66.50;;;;;;4679627;56;21547;-40
2023/06/14 21:00:13;;;;;;;12.80;10.30;;;24.60;66.50;;;;;;4642679;55;21037;-39
2023/06/14 21:05:15;;;;;;;12.93;11.02;;;24.60;66.50;;;;;;4679923;56;21480;-39
2023/06/14 21:10:16;;;;;;;13.23;10.70;;;24.60;66.50;;;;;;4614854;60;21562;-39
2023/06/14 21:15:16;;;;;;;13.02;11.12;;;24.60;66.50;;;;;;4709316;55;21137;-39
2023/06/14 21:20:17;;;;;;;11.35;10.18;;;24.60;66.50;;;;;;4632381;55;21550;-39
2023/06/14 21:25:18;;;;;;;11.95;10.73;;;24.60;66.40;;;;;;4615241;55;21088;-41
2023/06/14 21:30:32;;;;;;;12.00;10.70;;;24.60;66.50;;;;;;4688524;55;21584;-38
2023/06/14 21:35:33;;;;;;;11.30;10.05;;;24.60;66.50;;;;;;4615927;60;21579;-36
2023/06/14 21:40:34;;;;;;;11.98;10.65;;;24.60;66.50;;;;;;4718685;55;21046;-39
2023/06/14 21:45:36;;;;;;;13.20;10.63;;;24.60;66.50;;;;;;4767404;55;21073;-38
2023/06/14 21:50:36;;;;;;;12.48;10.60;;;24.60;66.50;;;;;;4615635;59;21519;-40
2023/06/14 21:55:38;;;;;;;10.95;9.85;;;24.60;66.40;;;;;;4619292;55;21053;-40
2023/06/14 22:00:39;;;;;;;12.73;10.60;;;24.60;66.40;;;;;;4615443;60;21089;-39
2023/06/14 22:05:41;;;;;;;12.68;10.60;;;24.60;66.40;;;;;;4621116;55;21487;-39
2023/06/14 22:10:42;;;;;;;11.50;10.15;;;24.60;66.40;;;;;;4615087;60;21667;-39
2023/06/14 22:15:45;;;;;;;11.80;10.48;;;24.60;66.40;;;;;;4621347;56;21041;-38
2023/06/14 22:20:47;;;;;;;11.12;9.93;;;24.60;66.40;;;;;;4615772;60;21510;-37
2023/06/14 22:25:47;;;;;;;12.30;10.25;;;24.60;66.40;;;;;;4640267;56;21635;-38
2023/06/14 22:30:48;;;;;;;11.48;10.25;;;24.60;66.40;;;;;;4752851;55;21101;-39
2023/06/14 22:35:49;;;;;;;11.93;10.48;;;24.60;66.30;;;;;;4725517;55;21567;-38
2023/06/14 22:40:50;;;;;;;11.80;10.65;;;24.60;66.40;;;;;;4665205;55;21157;-40
2023/06/14 22:45:51;;;;;;;11.48;10.07;;;24.60;66.30;;;;;;4615611;60;21425;-38
2023/06/14 22:50:52;;;;;;;10.45;9.45;;;24.60;66.30;;;;;;4614812;60;21034;-40
2023/06/14 22:55:53;;;;;;;10.95;9.85;;;24.60;66.30;;;;;;4653354;56;21496;-40
2023/06/14 23:00:53;;;;;;;10.63;9.52;;;24.60;66.30;;;;;;4615220;60;21081;-40
2023/06/14 23:05:58;;;;;;;11.10;9.75;;;24.60;66.30;;;;;;4691296;56;21040;-39
2023/06/14 23:11:01;;;;;;;11.02;9.93;;;24.60;66.30;;;;;;4615079;60;21515;-38
2023/06/14 23:16:02;;;;;;;10.20;9.20;;;24.60;66.30;;;;;;4659148;56;21559;-39
2023/06/14 23:21:04;;;;;;;10.63;9.20;;;24.60;66.30;;;;;;4706306;56;21073;-39
2023/06/14 23:26:06;;;;;;;10.43;9.20;;;24.60;66.30;;;;;;4615583;60;22324;-39
2023/06/14 23:31:08;;;;;;;9.93;8.93;;;24.60;66.30;;;;;;4701060;56;21497;-39
2023/06/14 23:36:08;;;;;;;10.48;9.20;;;24.60;66.30;;;;;;4672959;56;21044;-38
2023/06/14 23:41:10;;;;;;;11.18;9.98;;;24.60;66.40;;;;;;4684215;56;21603;-39
2023/06/14 23:46:11;;;;;;;10.50;9.40;;;24.50;66.20;;;;;;4723945;56;21538;-38
2023/06/14 23:51:12;;;;;;;10.45;9.40;;;24.60;66.30;;;;;;4642298;56;21132;-37
2023/06/14 23:56:13;;;;;;;10.15;8.95;;;24.60;66.20;;;;;;4615607;60;21598;-38
